Time;durP1;ratioP1;P1;durP2;ratioP2;P2;SDS_P1;SDS_P2;PMS_P1;PMS_P2;Temp;Humidity;BMP_temperature;BMP_pressure;BME280_temperature;BME280_humidity;BME280_pressure;Samples;Min_cycle;Max_cycle;Signal;HPM_P1;HPM_P2
2023/06/08 00:01:57;;;;;;;16.80;13.70;;;;;;;20.38;56.39;93367.78;5042439;28;20033;-88
2023/06/08 00:04:22;;;;;;;17.00;13.43;;;;;;;20.36;56.48;93359.31;5054158;28;20033;-89
2023/06/08 00:06:49;;;;;;;18.88;14.55;;;;;;;20.35;56.45;93369.53;5057651;28;20037;-87
2023/06/08 00:09:16;;;;;;;17.83;13.73;;;;;;;20.35;56.46;93368.84;5057972;28;20048;-88
2023/06/08 00:11:42;;;;;;;16.08;13.05;;;;;;;20.33;56.59;93371.34;5055584;28;20100;-88
2023/06/08 00:14:07;;;;;;;17.15;13.40;;;;;;;20.34;56.28;93368.09;5040802;28;20041;-90
2023/06/08 00:16:34;;;;;;;16.73;13.20;;;;;;;20.34;56.23;93367.34;5037607;28;20691;-88
2023/06/08 00:19:00;;;;;;;16.20;13.07;;;;;;;20.37;56.36;93355.31;5043286;28;20128;-88
2023/06/08 00:21:29;;;;;;;14.95;12.82;;;;;;;20.34;56.34;93359.13;5033360;28;20040;-91
2023/06/08 00:23:55;;;;;;;14.57;12.10;;;;;;;20.32;56.34;93353.41;5026501;28;20070;-88
2023/06/08 00:26:21;;;;;;;17.17;13.23;;;;;;;20.32;56.53;93356.16;5059705;28;20041;-89
2023/06/08 00:28:47;;;;;;;16.25;13.18;;;;;;;20.33;56.48;93358.38;5059422;28;20052;-89
2023/06/08 00:31:13;;;;;;;18.35;13.00;;;;;;;20.32;56.35;93356.91;5045243;28;20033;-88
2023/06/08 00:33:38;;;;;;;14.32;12.07;;;;;;;20.32;56.55;93359.63;5027571;28;20055;-88
2023/06/08 00:36:13;;;;;;;17.23;13.13;;;;;;;20.31;56.56;93363.66;5058813;28;20032;-87
2023/06/08 00:38:38;;;;;;;14.43;12.88;;;;;;;20.31;56.12;93355.41;5043310;28;20029;-89
2023/06/08 00:41:05;;;;;;;14.18;11.25;;;;;;;20.32;56.14;93364.38;5042474;28;20044;-87
2023/06/08 00:43:31;;;;;;;14.15;12.65;;;;;;;20.31;56.30;93363.66;5038951;28;20240;-88
2023/06/08 00:45:56;;;;;;;14.75;12.20;;;;;;;20.32;56.28;93359.63;5041393;28;20043;-90
2023/06/08 00:48:23;;;;;;;15.18;12.57;;;;;;;20.29;56.36;93359.94;5022566;28;20043;-89
2023/06/08 00:50:50;;;;;;;14.68;12.32;;;;;;;20.30;56.36;93362.16;5060839;28;20044;-89
2023/06/08 00:53:15;;;;;;;14.50;12.00;;;;;;;20.30;56.43;93364.91;5047904;28;20498;-89
2023/06/08 00:55:43;;;;;;;15.55;11.82;;;;;;;20.29;56.42;93363.44;5027728;28;20041;-90
2023/06/08 00:58:13;;;;;;;13.43;11.57;;;;;;;20.31;56.21;93358.16;5026815;28;20037;-87
2023/06/08 01:00:41;;;;;;;14.27;11.38;;;;;;;20.29;56.51;93357.94;5073808;28;20049;-87
2023/06/08 01:03:06;;;;;;;14.07;11.27;;;;;;;20.29;56.43;93360.69;5061061;28;20112;-88
2023/06/08 01:05:32;;;;;;;15.13;12.23;;;;;;;20.29;56.26;93348.97;5041040;28;20040;-88
2023/06/08 01:08:08;;;;;;;15.05;11.13;;;;;;;20.27;56.29;93357.72;5040958;28;20536;-87
2023/06/08 01:10:38;;;;;;;15.27;11.38;;;;;;;20.27;56.12;93346.00;5076842;28;20078;-89
2023/06/08 01:13:21;;;;;;;13.07;11.43;;;;;;;20.28;56.44;93348.22;5023900;28;20037;-88
2023/06/08 01:15:49;;;;;;;12.93;10.73;;;;;;;20.27;56.28;93348.75;5001860;28;20071;-89
2023/06/08 01:18:23;;;;;;;12.65;11.05;;;;;;;20.29;56.03;93351.72;5006759;28;20041;-87
2023/06/08 01:21:08;;;;;;;17.23;11.32;;;;;;;20.30;56.16;93342.22;5053724;28;20120;-88
2023/06/08 01:24:14;;;;;;;17.88;11.48;;;;;;;20.30;56.21;93342.22;5046471;28;20538;-88
2023/06/08 01:26:43;;;;;;;12.70;10.38;;;;;;;20.29;56.14;93327.75;5056040;28;20041;-88
2023/06/08 01:29:09;;;;;;;13.65;11.00;;;;;;;20.25;56.30;93332.78;5053208;28;20109;-89
2023/06/08 01:31:36;;;;;;;13.07;11.52;;;;;;;20.27;56.06;93327.53;5053884;28;20040;-88
2023/06/08 01:34:02;;;;;;;14.20;10.52;;;;;;;20.27;56.38;93329.53;5069833;28;20040;-90
2023/06/08 01:36:44;;;;;;;13.43;10.40;;;;;;;20.25;56.22;93316.31;5043567;28;20049;-87
2023/06/08 01:39:23;;;;;;;13.80;10.68;;;;;;;20.26;56.57;93320.56;5063654;28;20719;-89
2023/06/08 01:41:48;;;;;;;13.15;11.30;;;;;;;20.25;56.06;93327.31;5026548;28;20105;-88
2023/06/08 01:44:15;;;;;;;12.07;9.45;;;;;;;20.23;56.35;93321.59;5039909;28;20041;-87
2023/06/08 01:46:40;;;;;;;12.63;10.40;;;;;;;20.26;56.13;93323.28;5046528;28;20478;-89
2023/06/08 01:49:05;;;;;;;12.23;10.02;;;;;;;20.25;55.88;93323.81;5042347;28;20037;-90
2023/06/08 01:51:32;;;;;;;13.68;10.25;;;;;;;20.25;56.21;93319.06;5025953;28;20060;-88
2023/06/08 01:54:02;;;;;;;12.18;10.43;;;;;;;20.23;56.60;93312.63;5042778;28;20041;-88
2023/06/08 01:56:31;;;;;;;;;;;;;;;20.28;56.18;93320.78;5071492;28;20060;-87
2023/06/08 01:58:56;;;;;;;13.32;10.48;;;;;;;20.24;56.09;93319.59;5071417;28;19925;-87
2023/06/08 02:01:22;;;;;;;13.43;9.85;;;;;;;20.22;56.34;93317.38;5018543;28;20057;-89
2023/06/08 02:03:47;;;;;;;11.95;9.88;;;;;;;20.22;56.21;93308.41;5038318;28;20048;-88
2023/06/08 02:06:12;;;;;;;11.68;10.20;;;;;;;20.22;56.16;93320.13;5039079;28;20048;-88
2023/06/08 02:08:38;;;;;;;13.98;10.38;;;;;;;20.21;56.36;93313.16;5033465;28;20049;-89
2023/06/08 02:11:04;;;;;;;11.85;9.82;;;;;;;20.22;56.15;93316.63;5040776;28;20071;-87
2023/06/08 02:13:30;;;;;;;11.60;10.15;;;;;;;20.22;56.03;93316.63;5075436;28;20040;-88
2023/06/08 02:15:55;;;;;;;11.75;9.70;;;;;;;20.22;56.05;93309.13;5025280;28;20056;-88
2023/06/08 02:18:21;;;;;;;13.50;9.80;;;;;;;20.20;56.18;93301.44;5055495;28;20087;-88
2023/06/08 02:20:46;;;;;;;11.35;9.40;;;;;;;20.20;56.26;93312.41;5066291;28;20048;-89
2023/06/08 02:23:12;;;;;;;13.68;10.00;;;;;;;20.20;56.05;93308.91;5040116;28;20113;-90
2023/06/08 02:25:37;;;;;;;15.52;9.93;;;;;;;20.20;56.16;93311.66;5071929;28;20049;-88
2023/06/08 02:28:03;;;;;;;13.35;10.50;;;;;;;20.24;56.05;93311.34;5047928;28;20075;-88
2023/06/08 02:30:28;;;;;;;13.88;10.30;;;;;;;20.22;55.95;93311.88;5042339;28;20033;-90
2023/06/08 02:32:54;;;;;;;11.70;9.30;;;;;;;20.21;55.90;93313.16;5025416;28;20033;-91
2023/06/08 02:35:19;;;;;;;12.20;9.65;;;;;;;20.21;55.91;93310.41;5053749;28;20046;-89
2023/06/08 02:37:45;;;;;;;11.70;9.82;;;;;;;20.22;55.69;93313.88;5043055;28;20049;-89
2023/06/08 02:40:10;;;;;;;10.93;9.10;;;;;;;20.19;55.91;93316.41;5037609;28;20037;-88
2023/06/08 02:42:36;;;;;;;11.38;9.52;;;;;;;20.21;55.81;93321.38;5018248;28;20068;-87
2023/06/08 02:45:01;;;;;;;12.13;9.15;;;;;;;20.19;55.87;93319.16;5019791;28;20534;-89
2023/06/08 02:47:27;;;;;;;11.40;8.48;;;;;;;20.18;56.18;93314.94;5033590;28;20076;-89
2023/06/08 02:49:52;;;;;;;9.55;8.20;;;;;;;20.19;55.85;93319.16;5018157;28;20119;-88
2023/06/08 02:52:17;;;;;;;11.13;9.05;;;;;;;20.18;55.85;93303.94;5035747;28;20151;-87
2023/06/08 02:54:43;;;;;;;9.75;8.75;;;;;;;20.17;56.01;93299.72;5036789;28;20041;-88
2023/06/08 02:57:08;;;;;;;10.32;8.95;;;;;;;20.18;55.81;93303.22;5046421;28;20076;-88
2023/06/08 02:59:36;;;;;;;11.85;9.10;;;;;;;20.18;55.86;93303.22;5024813;28;20042;-90
2023/06/08 03:02:01;;;;;;;10.25;9.15;;;;;;;20.17;55.90;93304.47;5054384;28;20044;-89
2023/06/08 03:04:27;;;;;;;11.85;9.13;;;;;;;20.19;55.66;93302.69;5052006;28;20041;-89
2023/06/08 03:06:53;;;;;;;10.63;8.35;;;;;;;20.18;56.00;93297.72;5017937;28;20033;-89
2023/06/08 03:09:24;;;;;;;11.30;8.90;;;;;;;20.17;55.83;93305.22;5019958;28;20037;-87
2023/06/08 03:11:51;;;;;;;10.25;9.00;;;;;;;20.17;55.72;93299.72;5018778;28;20033;-89
2023/06/08 03:14:18;;;;;;;11.18;8.70;;;;;;;20.19;55.79;93301.94;5031291;28;20041;-87
2023/06/08 03:16:44;;;;;;;13.10;8.50;;;;;;;20.18;55.54;93303.22;5002118;28;20092;-88
2023/06/08 03:19:10;;;;;;;9.75;8.07;;;;;;;20.19;55.70;93299.94;5016450;28;20644;-87
2023/06/08 03:21:36;;;;;;;11.10;8.90;;;;;;;20.17;55.96;93298.97;5048318;28;20044;-90
2023/06/08 03:24:02;;;;;;;10.40;8.43;;;;;;;20.18;55.88;93297.72;5022139;28;20312;-89
2023/06/08 03:26:28;;;;;;;10.52;9.02;;;;;;;20.17;55.62;93296.25;4993889;28;20050;-91
2023/06/08 03:28:53;;;;;;;10.23;7.90;;;;;;;20.15;55.82;93294.03;5017333;28;20040;-88
2023/06/08 03:31:20;;;;;;;9.43;8.05;;;;;;;20.17;55.80;93298.97;5054307;28;20052;-88
2023/06/08 03:33:46;;;;;;;10.10;8.02;;;;;;;20.16;55.80;93295.50;5039307;28;20506;-89
2023/06/08 03:36:12;;;;;;;11.18;8.68;;;;;;;20.18;55.61;93300.47;5040227;28;20134;-89
2023/06/08 03:38:37;;;;;;;9.23;7.35;;;;;;;20.19;55.59;93299.94;5019048;28;20645;-88
2023/06/08 03:41:03;;;;;;;9.52;8.05;;;;;;;20.15;55.71;93294.03;4993823;28;20048;-88
2023/06/08 03:43:28;;;;;;;9.93;8.15;;;;;;;20.19;55.63;93301.94;5054467;28;20045;-87
2023/06/08 03:45:53;;;;;;;8.65;7.60;;;;;;;20.19;55.50;93304.69;5036148;28;20041;-90
2023/06/08 03:48:19;;;;;;;9.82;8.35;;;;;;;20.18;55.82;93306.69;5022821;28;20029;-89
2023/06/08 03:50:44;;;;;;;11.10;8.13;;;;;;;20.18;55.83;93312.19;5040780;28;20052;-89
2023/06/08 03:53:12;;;;;;;8.38;7.47;;;;;;;20.16;55.70;93311.97;5019784;28;20036;-88
2023/06/08 03:55:37;;;;;;;8.45;7.55;;;;;;;20.16;55.61;93325.69;5038440;28;20126;-89
2023/06/08 03:58:03;;;;;;;9.10;8.05;;;;;;;20.19;55.66;93302.69;5055092;28;20038;-87
2023/06/08 04:00:29;;;;;;;8.25;7.45;;;;;;;20.17;55.41;93307.97;5032415;28;20033;-87
2023/06/08 04:02:55;;;;;;;9.55;8.50;;;;;;;20.18;55.88;93311.44;5020674;28;20047;-90
2023/06/08 04:05:21;;;;;;;9.15;7.63;;;;;;;20.17;55.67;93304.47;5019015;28;20041;-91
2023/06/08 04:07:47;;;;;;;8.48;7.57;;;;;;;20.17;55.82;93307.22;5019876;28;20033;-88
2023/06/08 04:10:13;;;;;;;9.77;7.60;;;;;;;20.17;55.61;93315.44;5028778;28;20041;-89
2023/06/08 04:12:38;;;;;;;10.45;8.13;;;;;;;20.16;55.84;93311.97;5052084;28;20132;-88
2023/06/08 04:15:04;;;;;;;9.20;7.88;;;;;;;20.20;55.61;93314.41;5030777;28;20534;-89
2023/06/08 04:17:40;;;;;;;17.13;15.32;;;;;;;20.25;55.91;93321.81;5038517;28;20105;-89
2023/06/08 04:20:15;;;;;;;52.15;44.58;;;;;;;20.17;55.89;93309.97;5041975;28;20119;-89
2023/06/08 04:22:40;;;;;;;24.92;19.13;;;;;;;20.18;55.96;93325.16;5063977;28;20041;-88
2023/06/08 04:25:06;;;;;;;16.23;13.95;;;;;;;20.16;56.23;93316.72;5048593;28;20447;-90
2023/06/08 04:27:34;;;;;;;9.95;8.68;;;;;;;20.08;56.07;93308.38;5030915;28;20345;-88
2023/06/08 04:30:00;;;;;;;12.02;9.32;;;;;;;20.04;56.55;93304.47;5031306;28;20045;-90
2023/06/08 04:32:26;;;;;;;15.23;11.63;;;;;;;19.98;56.87;93312.78;5044289;28;20637;-89
2023/06/08 04:34:51;;;;;;;9.15;8.10;;;;;;;19.95;56.77;93300.09;5045522;28;20059;-87
2023/06/08 04:37:17;;;;;;;10.07;7.70;;;;;;;19.91;57.38;93307.19;5039060;28;20484;-88
2023/06/08 04:39:42;;;;;;;9.27;6.68;;;;;;;19.84;57.10;93314.75;5014417;28;20030;-90
2023/06/08 04:42:08;;;;;;;9.88;6.72;;;;;;;19.84;57.47;93314.75;5008896;28;20029;-88
2023/06/08 04:44:34;;;;;;;9.15;6.18;;;;;;;19.79;57.51;93312.09;4992482;28;20045;-89
2023/06/08 04:47:00;;;;;;;7.15;6.40;;;;;;;19.85;57.45;93312.75;4993088;28;20065;-87
2023/06/08 04:49:31;;;;;;;8.52;6.95;;;;;;;19.83;57.31;93328.97;5002474;28;20052;-88
2023/06/08 04:51:58;;;;;;;9.38;6.80;;;;;;;19.85;57.36;93327.19;4977989;28;20038;-90
2023/06/08 04:54:25;;;;;;;7.28;6.18;;;;;;;19.86;57.36;93327.94;4994707;28;20086;-89
2023/06/08 04:56:53;;;;;;;11.38;6.68;;;;;;;19.89;57.33;93324.16;5008682;28;20064;-88
2023/06/08 04:59:19;;;;;;;9.38;6.93;;;;;;;19.92;57.41;93331.31;5006107;28;20034;-90
2023/06/08 05:01:45;;;;;;;8.93;6.82;;;;;;;19.93;57.05;93335.53;5007573;28;20068;-87
2023/06/08 05:04:10;;;;;;;9.23;7.47;;;;;;;19.98;57.08;93336.72;4991447;28;20508;-87
2023/06/08 05:06:37;;;;;;;9.15;7.13;;;;;;;19.99;57.29;93329.97;5027156;28;20060;-88
2023/06/08 05:09:02;;;;;;;15.52;7.93;;;;;;;20.00;56.98;93336.94;5013052;28;20037;-88
2023/06/08 05:11:28;;;;;;;17.20;8.48;;;;;;;20.04;57.07;93332.63;5045618;28;20049;-88
2023/06/08 05:13:53;;;;;;;24.35;9.48;;;;;;;20.06;56.83;93343.09;5009213;28;20042;-88
2023/06/08 05:16:18;;;;;;;10.00;7.43;;;;;;;20.06;56.86;93338.34;5011820;28;20510;-87
2023/06/08 05:18:44;;;;;;;10.85;8.48;;;;;;;20.08;56.74;93340.56;5029969;28;20048;-90
2023/06/08 05:21:10;;;;;;;12.32;8.30;;;;;;;20.07;56.67;93330.84;5010948;28;20048;-88
2023/06/08 05:23:36;;;;;;;10.10;7.45;;;;;;;20.06;56.69;93341.09;4993252;28;20045;-90
2023/06/08 05:26:02;;;;;;;11.30;8.02;;;;;;;20.09;56.75;93344.78;5035438;28;20052;-88
2023/06/08 05:28:27;;;;;;;12.50;8.38;;;;;;;20.12;56.69;93330.78;5032212;28;20041;-88
2023/06/08 05:30:52;;;;;;;11.38;7.68;;;;;;;20.11;56.62;93336.78;5032396;28;20410;-87
2023/06/08 05:33:18;;;;;;;10.10;6.90;;;;;;;20.13;56.48;93331.50;5048855;28;20048;-88
2023/06/08 05:35:43;;;;;;;14.95;8.18;;;;;;;20.12;56.27;93339.00;5033016;28;20376;-90
2023/06/08 05:38:09;;;;;;;10.52;7.60;;;;;;;20.13;56.68;93342.50;5006635;28;20491;-90
2023/06/08 05:40:34;;;;;;;11.45;7.57;;;;;;;20.15;56.59;93331.69;5013698;28;20037;-88
2023/06/08 05:43:00;;;;;;;17.63;7.88;;;;;;;20.14;56.55;93335.72;5064985;28;20124;-89
2023/06/08 05:45:26;;;;;;;10.65;7.57;;;;;;;20.21;56.62;93335.09;5036766;28;20041;-89
2023/06/08 05:47:51;;;;;;;8.57;7.20;;;;;;;20.15;56.87;93331.69;5047204;28;20111;-90
2023/06/08 05:50:17;;;;;;;10.10;7.25;;;;;;;20.15;56.76;93321.47;5079643;28;20336;-89
2023/06/08 05:52:42;;;;;;;8.57;7.13;;;;;;;20.17;56.83;93326.44;5046919;28;20045;-89
2023/06/08 05:55:08;;;;;;;10.10;6.28;;;;;;;20.17;56.70;93329.19;5036542;28;20041;-89
2023/06/08 05:57:33;;;;;;;9.95;7.45;;;;;;;20.17;56.52;93329.19;5029820;28;20049;-90
2023/06/08 05:59:59;;;;;;;460.52;412.17;;;;;;;20.25;57.27;93332.06;5030727;28;20042;-89
2023/06/08 06:02:24;;;;;;;35.30;31.33;;;;;;;20.24;56.48;93314.09;5045779;28;20041;-88
2023/06/08 06:04:50;;;;;;;25.85;19.23;;;;;;;20.24;56.58;93325.81;5027579;28;20511;-87
2023/06/08 06:07:15;;;;;;;13.35;9.75;;;;;;;20.24;56.62;93323.06;5029683;28;20037;-88
2023/06/08 06:09:41;;;;;;;328.02;292.25;;;;;;;20.26;56.90;93317.06;5030449;28;20084;-87
2023/06/08 06:12:09;;;;;;;207.55;181.93;;;;;;;20.29;56.60;93316.03;5030668;28;20033;-86
2023/06/08 06:14:39;;;;;;;21.25;16.73;;;;;;;20.28;56.43;93320.03;5034556;28;20052;-87
2023/06/08 06:17:05;;;;;;;14.48;10.30;;;;;;;20.30;56.43;93318.25;5047202;28;20123;-87
2023/06/08 06:19:36;;;;;;;9.90;7.93;;;;;;;20.31;56.54;93314.22;5035798;28;20044;-85
2023/06/08 06:22:02;;;;;;;9.68;7.85;;;;;;;20.29;56.20;93311.28;5033718;28;20056;-87
2023/06/08 06:24:27;;;;;;;8.95;7.68;;;;;;;20.29;56.31;93321.50;5022683;28;20045;-88
2023/06/08 06:26:53;;;;;;;10.65;7.65;;;;;;;20.30;56.67;93318.25;5005124;28;20612;-88
2023/06/08 06:29:18;;;;;;;8.40;6.97;;;;;;;20.29;56.56;93318.75;5047238;28;20120;-91
2023/06/08 06:31:44;;;;;;;9.38;7.18;;;;;;;20.27;56.12;93324.03;5010085;28;20037;-87
2023/06/08 06:34:09;;;;;;;9.80;6.57;;;;;;;20.27;56.41;93316.53;5011601;28;20049;-88
2023/06/08 06:36:35;;;;;;;8.63;6.90;;;;;;;20.30;56.70;93323.72;5030211;28;20041;-89
2023/06/08 06:39:00;;;;;;;12.55;7.97;;;;;;;20.31;56.31;93322.47;5010857;28;20411;-90
2023/06/08 06:41:26;;;;;;;9.57;7.65;;;;;;;20.33;56.61;93321.94;4993346;28;20080;-89
2023/06/08 06:43:52;;;;;;;12.93;9.07;;;;;;;20.31;56.35;93316.97;4992876;28;20053;-89
2023/06/08 06:46:19;;;;;;;14.25;9.52;;;;;;;20.33;56.16;93327.44;5016014;28;20111;-92
2023/06/08 06:48:45;;;;;;;11.00;8.60;;;;;;;20.30;56.52;93323.72;4997808;28;20041;-88
2023/06/08 06:51:11;;;;;;;9.35;8.10;;;;;;;20.40;56.06;93330.31;5036377;28;20357;-87
2023/06/08 06:53:36;;;;;;;11.73;8.02;;;;;;;20.35;56.10;93327.66;5042068;28;20105;-89
2023/06/08 06:56:02;;;;;;;19.00;8.52;;;;;;;20.39;57.42;93325.34;5030778;28;20049;-90
2023/06/08 06:58:27;;;;;;;13.68;7.70;;;;;;;20.39;56.48;93325.34;5006150;28;20049;-88
2023/06/08 07:00:55;;;;;;;14.60;8.45;;;;;;;20.39;56.61;93336.31;5004612;28;20535;-93
2023/06/08 07:03:20;;;;;;;13.45;7.57;;;;;;;20.39;56.37;93331.56;5025225;28;20053;-88
2023/06/08 07:05:46;;;;;;;15.73;8.90;;;;;;;20.44;56.52;93325.25;5033363;28;20037;-89
2023/06/08 07:08:11;;;;;;;15.02;7.75;;;;;;;20.40;56.24;93330.31;5029389;28;20422;-87
2023/06/08 07:10:37;;;;;;;12.43;7.82;;;;;;;20.37;56.46;93328.59;5013713;28;20053;-87
2023/06/08 07:13:03;;;;;;;11.13;7.00;;;;;;;20.38;56.31;93327.34;5012794;28;20442;-88
2023/06/08 07:15:28;;;;;;;20.77;8.55;;;;;;;20.38;56.45;93329.34;5029349;28;20041;-87
2023/06/08 07:17:54;;;;;;;136.43;119.35;;;;;;;20.42;56.40;93333.28;5010681;28;20037;-87
2023/06/08 07:20:19;;;;;;;20.75;13.35;;;;;;;20.42;56.62;93338.03;5008228;28;20064;-89
2023/06/08 07:22:45;;;;;;;16.42;9.75;;;;;;;20.43;56.75;93323.03;5009917;28;20041;-91
2023/06/08 07:25:10;;;;;;;15.48;10.00;;;;;;;20.44;56.65;93332.75;5022158;28;20427;-89
2023/06/08 07:27:36;;;;;;;11.45;8.23;;;;;;;20.45;56.66;93326.72;5045427;28;20041;-91
2023/06/08 07:30:01;;;;;;;11.57;9.45;;;;;;;20.47;56.58;93323.47;5044336;28;20041;-91
2023/06/08 07:32:28;;;;;;;11.80;9.70;;;;;;;20.46;56.34;93324.72;5047285;28;20041;-91
2023/06/08 07:34:54;;;;;;;12.48;8.68;;;;;;;20.45;56.32;93321.25;5048072;28;20120;-90
2023/06/08 07:37:20;;;;;;;16.60;9.10;;;;;;;20.45;56.32;93323.25;5011997;28;20045;-87
2023/06/08 07:39:45;;;;;;;13.20;9.20;;;;;;;20.45;56.37;93331.47;5025584;28;20526;-92
2023/06/08 07:42:11;;;;;;;13.45;8.65;;;;;;;20.47;56.54;93320.72;5043861;28;20210;-90
2023/06/08 07:44:36;;;;;;;11.18;9.10;;;;;;;20.47;56.81;93318.72;5030774;28;20048;-91
2023/06/08 07:47:02;;;;;;;14.00;8.85;;;;;;;20.48;56.40;93322.19;5032776;28;20045;-91
2023/06/08 07:49:30;;;;;;;14.20;8.30;;;;;;;20.47;56.52;93329.69;5026946;28;20052;-92
2023/06/08 07:51:56;;;;;;;16.05;8.85;;;;;;;20.46;56.35;93325.47;5042852;28;20037;-90
2023/06/08 07:54:22;;;;;;;13.15;8.23;;;;;;;20.47;56.30;93331.69;5013822;28;20052;-91
2023/06/08 07:56:48;;;;;;;15.85;8.95;;;;;;;20.49;56.49;93334.66;5046680;28;20052;-91
2023/06/08 07:59:14;;;;;;;17.30;9.63;;;;;;;20.48;56.52;93325.69;5021978;28;20045;-91
2023/06/08 08:01:42;;;;;;;18.20;9.95;;;;;;;20.46;56.51;93330.97;5018813;28;20418;-91
2023/06/08 08:04:08;;;;;;;16.00;8.88;;;;;;;20.46;56.53;93330.22;5011051;28;20030;-91
2023/06/08 08:06:36;;;;;;;16.08;9.40;;;;;;;20.47;56.57;93334.44;4995079;28;20507;-90
2023/06/08 08:09:01;;;;;;;13.32;8.55;;;;;;;20.49;56.57;93332.66;5053154;28;20052;-92
2023/06/08 08:11:29;;;;;;;17.20;8.95;;;;;;;20.50;56.39;93314.19;5043917;28;20045;-92
2023/06/08 08:13:56;;;;;;;11.57;7.93;;;;;;;20.50;56.76;93328.66;5063273;28;20041;-91
2023/06/08 08:16:21;;;;;;;12.20;8.20;;;;;;;20.51;56.41;93323.91;5027658;28;20856;-91
2023/06/08 08:18:46;;;;;;;16.02;9.20;;;;;;;20.49;56.48;93321.66;5027799;28;20033;-92
2023/06/08 08:21:13;;;;;;;17.75;9.65;;;;;;;20.51;56.43;93324.63;5052202;28;20045;-91
2023/06/08 08:23:39;;;;;;;15.05;8.02;;;;;;;20.53;56.77;93311.13;5043395;28;20037;-93
2023/06/08 08:26:04;;;;;;;11.73;7.80;;;;;;;20.53;56.72;93311.13;5021702;28;20038;-90
2023/06/08 08:28:30;;;;;;;15.55;10.70;;;;;;;20.52;56.55;93308.91;5006534;28;20045;-89
2023/06/08 08:30:56;;;;;;;17.67;12.02;;;;;;;20.52;56.54;93306.88;5021477;28;20029;-91
2023/06/08 08:33:21;;;;;;;17.83;11.30;;;;;;;20.55;56.46;93310.59;5042482;28;20076;-92
2023/06/08 08:35:47;;;;;;;13.68;9.57;;;;;;;20.53;57.05;93313.13;5008559;28;20049;-93
2023/06/08 08:38:12;;;;;;;13.25;10.00;;;;;;;20.52;56.95;93314.38;5017029;28;20088;-90
2023/06/08 08:40:40;;;;;;;15.48;10.32;;;;;;;20.53;57.06;93318.63;5025499;28;20048;-90
2023/06/08 08:43:09;;;;;;;14.60;9.02;;;;;;;20.51;56.70;93319.16;5013256;28;20080;-91
2023/06/08 08:45:36;;;;;;;14.18;9.73;;;;;;;20.51;56.98;93318.41;5008986;28;20421;-91
2023/06/08 08:48:01;;;;;;;13.88;8.77;;;;;;;20.51;56.81;93313.66;5000123;28;20056;-92
2023/06/08 08:50:29;;;;;;;25.52;10.00;;;;;;;20.52;57.15;93322.63;5006157;28;20408;-93
2023/06/08 08:52:56;;;;;;;25.85;9.38;;;;;;;20.50;57.08;93328.66;5014535;28;20084;-92
2023/06/08 08:55:27;;;;;;;14.52;8.30;;;;;;;20.52;56.99;93348.09;5005325;28;20045;-90
2023/06/08 08:57:53;;;;;;;;;;;;;;;20.55;56.71;93351.03;5007691;28;20042;-90
2023/06/08 09:00:19;;;;;;;26.52;18.10;;;;;;;20.52;57.20;93348.09;4994923;28;19921;-90
2023/06/08 09:02:45;;;;;;;27.40;21.25;;;;;;;20.48;57.33;93327.69;5023452;28;20124;-93
2023/06/08 09:05:10;;;;;;;71.20;55.75;;;;;;;20.49;57.35;93326.44;5009257;28;20402;-91
2023/06/08 09:07:37;;;;;;;23.92;14.85;;;;;;;20.48;57.22;93330.44;4991041;28;20049;-92
2023/06/08 09:10:18;;;;;;;24.98;17.85;;;;;;;20.49;57.15;93335.41;5009721;28;20038;-92
2023/06/08 09:12:51;;;;;;;24.90;16.58;;;;;;;20.48;57.10;93333.91;4989612;28;20042;-91
2023/06/08 09:15:33;;;;;;;20.33;14.63;;;;;;;20.48;57.17;93333.91;5012131;28;20041;-91
2023/06/08 09:18:02;;;;;;;19.05;13.80;;;;;;;20.47;57.09;93329.69;5019196;28;20055;-91
2023/06/08 09:20:37;;;;;;;17.60;13.80;;;;;;;20.48;57.30;93339.41;4989900;28;20076;-91
2023/06/08 09:23:15;;;;;;;17.55;11.95;;;;;;;20.46;57.23;93332.97;5024785;28;20463;-94
2023/06/08 09:25:41;;;;;;;13.57;10.48;;;;;;;20.46;57.32;93338.47;5021099;28;20601;-92
2023/06/08 09:28:16;;;;;;;254.48;229.00;;;;;;;20.50;57.83;93333.41;5015318;28;20037;-90
2023/06/08 09:30:43;;;;;;;290.92;261.75;;;;;;;20.50;57.78;93331.41;5026437;28;20046;-90
2023/06/08 09:33:25;;;;;;;42.92;33.13;;;;;;;20.51;57.32;93329.38;5036898;28;20041;-89
2023/06/08 09:36:15;;;;;;;15.82;11.95;;;;;;;20.51;57.39;93330.13;5043003;28;20828;-90
2023/06/08 09:38:40;;;;;;;27.80;25.10;;;;;;;20.52;57.19;93330.88;5007118;28;20046;-90
2023/06/08 09:41:19;;;;;;;135.95;121.75;;;;;;;20.53;57.14;93332.34;5019406;28;20038;-88
2023/06/08 09:43:46;;;;;;;39.15;32.88;;;;;;;20.52;57.38;93334.34;5020921;28;20056;-90
2023/06/08 09:46:16;;;;;;;14.25;11.15;;;;;;;20.53;57.37;93332.34;5024442;28;20044;-92
2023/06/08 09:48:53;;;;;;;14.30;10.93;;;;;;;20.50;57.31;93334.13;5030100;28;20048;-92
2023/06/08 09:51:19;;;;;;;17.58;13.55;;;;;;;20.48;57.28;93327.69;5036892;28;20034;-91
2023/06/08 09:53:45;;;;;;;13.80;10.93;;;;;;;20.49;57.35;93337.41;5064018;28;20095;-92
2023/06/08 09:56:10;;;;;;;14.40;9.82;;;;;;;20.50;57.22;93330.66;5063352;28;20041;-90
2023/06/08 09:58:37;;;;;;;17.00;11.63;;;;;;;20.48;57.33;93339.41;5033348;28;20079;-87
2023/06/08 10:01:03;;;;;;;12.00;10.70;;;;;;;20.47;57.33;93335.19;5026143;28;20042;-91
2023/06/08 10:03:30;;;;;;;13.60;9.63;;;;;;;20.47;57.37;93326.94;5030845;28;20087;-90
2023/06/08 10:05:55;;;;;;;13.93;10.40;;;;;;;20.47;57.43;93320.72;5032738;28;20506;-88
2023/06/08 10:08:22;;;;;;;11.82;9.27;;;;;;;20.47;57.38;93323.47;5045273;28;20052;-87
2023/06/08 10:10:47;;;;;;;13.18;8.90;;;;;;;20.46;57.59;93319.25;5013171;28;20232;-88
2023/06/08 10:13:13;;;;;;;13.60;9.13;;;;;;;20.45;57.55;93312.25;5029150;28;20478;-88
2023/06/08 10:15:38;;;;;;;12.70;9.45;;;;;;;20.47;57.67;93315.22;5012305;28;20037;-88
2023/06/08 10:18:04;;;;;;;11.95;8.98;;;;;;;20.47;57.41;93313.22;5026835;28;20045;-90
2023/06/08 10:20:30;;;;;;;13.35;9.95;;;;;;;20.48;57.39;93311.22;5030610;28;20041;-93
2023/06/08 10:22:57;;;;;;;11.65;9.00;;;;;;;20.46;57.29;93306.25;4997316;28;20041;-89
2023/06/08 10:25:23;;;;;;;14.40;9.32;;;;;;;20.45;57.48;93309.50;5009025;28;20108;-88
2023/06/08 10:27:50;;;;;;;13.30;9.05;;;;;;;20.47;57.47;93307.72;4992971;28;20227;-89
2023/06/08 10:30:29;;;;;;;13.55;8.95;;;;;;;20.46;57.33;93308.25;5028309;28;20037;-90
2023/06/08 10:32:55;;;;;;;11.57;8.68;;;;;;;20.45;57.30;93304.03;5009369;28;20041;-89
2023/06/08 10:35:20;;;;;;;12.85;8.95;;;;;;;20.44;57.46;93306.03;5005232;28;20183;-91
2023/06/08 10:37:46;;;;;;;12.75;9.20;;;;;;;20.46;57.31;93303.50;5009253;28;20420;-90
2023/06/08 10:40:12;;;;;;;14.65;9.45;;;;;;;20.45;57.37;93296.53;4991417;28;20022;-91
2023/06/08 10:42:38;;;;;;;13.85;8.90;;;;;;;20.43;57.83;93288.06;5039804;28;20045;-91
2023/06/08 10:45:04;;;;;;;13.90;9.18;;;;;;;20.46;57.73;93278.78;4995237;28;20049;-92
2023/06/08 10:47:31;;;;;;;13.32;8.88;;;;;;;20.45;57.51;93279.31;5007780;28;20054;-90
2023/06/08 10:50:06;;;;;;;14.07;9.10;;;;;;;20.45;57.45;93277.31;5008680;28;20034;-90
2023/06/08 10:52:44;;;;;;;15.27;8.82;;;;;;;20.46;57.42;93280.78;5010378;28;20457;-88
2023/06/08 10:55:13;;;;;;;15.50;9.05;;;;;;;20.47;57.57;93274.03;4995922;28;20049;-88
2023/06/08 10:57:46;;;;;;;17.63;9.25;;;;;;;20.46;57.62;93276.03;4996695;28;20053;-92
2023/06/08 11:00:27;;;;;;;12.05;9.23;;;;;;;20.51;57.71;93266.97;4995397;28;20034;-89
2023/06/08 11:02:59;;;;;;;83.35;67.45;;;;;;;20.47;57.40;93258.31;5022551;28;20119;-90
2023/06/08 11:05:28;;;;;;;20.00;12.30;;;;;;;20.48;57.44;93248.06;5011148;28;20110;-87
2023/06/08 11:07:54;;;;;;;41.53;32.00;;;;;;;20.48;57.81;93250.81;5002572;28;20053;-92
2023/06/08 11:10:25;;;;;;;24.75;14.73;;;;;;;20.46;57.69;93256.06;5011711;28;20041;-91
2023/06/08 11:12:50;;;;;;;21.58;14.95;;;;;;;20.44;57.64;93242.88;5028236;28;20056;-89
2023/06/08 11:15:17;;;;;;;20.73;14.95;;;;;;;20.44;58.02;93258.59;5028206;28;20041;-92
2023/06/08 11:17:58;;;;;;;18.52;12.85;;;;;;;20.42;57.97;93248.16;5009727;28;20044;-92
2023/06/08 11:20:26;;;;;;;16.05;11.70;;;;;;;20.41;57.73;93249.41;5010986;28;20042;-91
2023/06/08 11:22:52;;;;;;;16.40;10.63;;;;;;;20.45;57.62;93247.09;4997389;28;20381;-92
2023/06/08 11:25:19;;;;;;;18.15;11.02;;;;;;;20.45;57.58;93243.63;5008377;28;20045;-88